Mound, Texas
Current Conditions -  °F | °C
As of 9:35 AM on Saturday 22 Nov 2014 (Local Time) from KGOP Reporting Station
Overcast Overcast  
Wind Chill: 18°   Ceiling: 800
Heat Index: 18°   Visibility: 8mi
Dew Point: 17°   Wind: 10mph
Humidity: 94%   Direction: 150°SSE
Pressure: 30.03"   Gusts: 16mph
Location:  31.35°N, 97.64°W
Report Text: KGOP 221535Z AUTO 15009G14KT 8SM OVC008 18/17 A3003 RMK AO2 LTG DSNT SE AND W AND NW PWINO
Loading
Personal Weather Stations






























Interactive Weather Map New forecast layout! Learn more

10-Day Weather Forecast

Advertisements
Track Severe Weather on mobile